createdAt,value
2023-01-23T00:00:57.319Z,0.00
2023-01-23T00:01:57.306Z,0.00
2023-01-23T00:02:57.293Z,0.00
2023-01-23T00:03:57.304Z,0.00
2023-01-23T00:04:57.271Z,0.00
2023-01-23T00:05:57.262Z,0.00
2023-01-23T00:06:57.247Z,0.00
2023-01-23T00:07:57.234Z,0.00
2023-01-23T00:08:57.247Z,0.00
2023-01-23T00:09:57.330Z,0.00
2023-01-23T00:10:57.196Z,0.00
2023-01-23T00:11:57.182Z,0.00
2023-01-23T00:12:57.172Z,0.00
2023-01-23T00:13:57.167Z,0.00
2023-01-23T00:14:57.152Z,0.00
2023-01-23T00:15:57.215Z,0.00
2023-01-23T00:16:57.125Z,0.00
2023-01-23T00:17:57.114Z,0.00
2023-01-23T00:18:57.100Z,0.00
2023-01-23T00:19:57.093Z,0.00
2023-01-23T00:20:57.104Z,0.00
2023-01-23T00:21:57.060Z,0.00
2023-01-23T00:22:57.050Z,0.00
2023-01-23T00:23:57.036Z,0.00
2023-01-23T00:24:57.024Z,0.00
2023-01-23T00:25:57.131Z,0.00
2023-01-23T00:26:57.005Z,0.00
2023-01-23T00:27:56.998Z,0.00
2023-01-23T00:28:56.978Z,0.00
2023-01-23T00:29:56.965Z,0.00
2023-01-23T00:30:57.093Z,0.00
2023-01-23T00:31:57.058Z,0.00
2023-01-23T00:32:56.927Z,0.00
2023-01-23T00:33:56.922Z,0.00
2023-01-23T00:34:56.903Z,0.00
2023-01-23T00:35:56.907Z,0.00
2023-01-23T00:36:56.878Z,0.00
2023-01-23T00:37:56.886Z,0.00
2023-01-23T00:38:56.873Z,0.00
2023-01-23T00:39:56.839Z,0.00
2023-01-23T00:40:56.827Z,0.00
2023-01-23T00:42:02.786Z,0.00
2023-01-23T00:42:56.919Z,0.00
2023-01-23T00:43:56.789Z,0.00
2023-01-23T00:44:56.776Z,0.00
2023-01-23T00:45:56.780Z,0.00
2023-01-23T00:46:56.752Z,0.00
2023-01-23T00:47:56.737Z,0.00
2023-01-23T00:48:56.730Z,0.00
2023-01-23T00:49:56.709Z,0.00
2023-01-23T00:50:56.745Z,0.00
2023-01-23T00:51:56.688Z,0.00
2023-01-23T00:52:56.678Z,0.00
2023-01-23T00:53:56.666Z,0.00
2023-01-23T00:54:56.654Z,0.00
2023-01-23T00:55:56.646Z,0.00
2023-01-23T00:56:56.626Z,0.00
2023-01-23T00:57:56.613Z,0.00
2023-01-23T00:58:56.727Z,0.00
2023-01-23T00:59:56.589Z,0.00
2023-01-23T01:00:56.576Z,0.00
2023-01-23T01:01:56.612Z,0.00
2023-01-23T01:02:56.597Z,0.00
2023-01-23T01:03:56.540Z,0.00
2023-01-23T01:04:56.526Z,0.00
2023-01-23T01:05:56.513Z,0.00
2023-01-23T01:06:56.501Z,0.00
2023-01-23T01:07:56.493Z,0.00
2023-01-23T01:08:56.475Z,0.00
2023-01-23T01:09:56.465Z,0.00
2023-01-23T01:10:56.453Z,0.00
2023-01-23T01:11:56.439Z,0.00
2023-01-23T01:12:56.427Z,0.00
2023-01-23T01:13:56.421Z,0.00
2023-01-23T01:14:56.524Z,0.00
2023-01-23T01:15:56.511Z,0.00
2023-01-23T01:16:56.378Z,0.00
2023-01-23T01:17:56.374Z,0.00
2023-01-23T01:18:56.365Z,0.00
2023-01-23T01:19:56.349Z,0.00
2023-01-23T01:20:56.373Z,0.00
2023-01-23T01:21:56.321Z,0.00
2023-01-23T01:22:56.315Z,0.00
2023-01-23T01:23:56.296Z,0.00
2023-01-23T01:24:56.281Z,0.00
2023-01-23T01:25:56.272Z,0.00
2023-01-23T01:26:56.256Z,0.00
2023-01-23T01:27:56.241Z,0.00
2023-01-23T01:28:56.231Z,0.00
2023-01-23T01:29:56.224Z,0.00
2023-01-23T01:30:56.444Z,0.00
2023-01-23T01:31:56.224Z,0.00
2023-01-23T01:32:56.190Z,0.00
2023-01-23T01:33:56.179Z,0.00
2023-01-23T01:34:56.169Z,0.00
2023-01-23T01:35:56.148Z,0.00
2023-01-23T01:36:56.134Z,0.00
2023-01-23T01:37:56.123Z,0.00
2023-01-23T01:38:56.111Z,0.00
2023-01-23T01:39:56.097Z,0.00
2023-01-23T01:40:56.084Z,0.00
2023-01-23T01:41:56.075Z,0.00
2023-01-23T01:42:56.059Z,0.00
2023-01-23T01:43:56.051Z,0.00
2023-01-23T01:44:56.032Z,0.00
2023-01-23T01:45:56.029Z,0.00
2023-01-23T01:46:56.034Z,0.00
2023-01-23T01:47:56.006Z,0.00
2023-01-23T01:48:55.984Z,0.00
2023-01-23T01:49:55.972Z,0.00
2023-01-23T01:50:56.012Z,0.00
2023-01-23T01:51:55.959Z,0.00
2023-01-23T01:52:55.932Z,0.00
2023-01-23T01:53:55.920Z,0.00
2023-01-23T01:54:55.909Z,0.00
2023-01-23T01:55:55.899Z,0.00
2023-01-23T01:56:55.881Z,0.00
2023-01-23T01:57:55.872Z,0.00
2023-01-23T01:58:55.857Z,0.00
2023-01-23T01:59:55.843Z,0.00
2023-01-23T02:00:55.909Z,0.00
2023-01-23T02:01:55.838Z,0.00
2023-01-23T02:02:55.941Z,0.00
2023-01-23T02:03:55.800Z,0.00
2023-01-23T02:04:55.780Z,0.00
2023-01-23T02:05:55.769Z,0.00
2023-01-23T02:06:55.765Z,0.00
2023-01-23T02:07:55.744Z,0.00
2023-01-23T02:08:55.734Z,0.00
2023-01-23T02:09:55.724Z,0.00
2023-01-23T02:10:55.706Z,0.00
2023-01-23T02:11:55.695Z,0.00
2023-01-23T02:12:55.681Z,0.00
2023-01-23T02:13:55.668Z,0.00
2023-01-23T02:14:55.658Z,0.00
2023-01-23T02:15:55.677Z,0.00
2023-01-23T02:16:55.631Z,0.00
2023-01-23T02:17:55.627Z,0.00
2023-01-23T02:18:55.722Z,0.00
2023-01-23T02:19:55.593Z,0.00
2023-01-23T02:20:55.584Z,0.00
2023-01-23T02:21:55.579Z,0.00
2023-01-23T02:23:55.545Z,0.00
2023-01-23T02:24:55.537Z,0.00
2023-01-23T02:25:55.520Z,0.00
2023-01-23T02:26:55.506Z,0.00
2023-01-23T02:27:55.498Z,0.00
2023-01-23T02:28:55.479Z,0.00
2023-01-23T02:29:55.471Z,0.00
2023-01-23T02:30:55.510Z,0.00
2023-01-23T02:31:55.469Z,0.00
2023-01-23T02:32:55.439Z,0.00
2023-01-23T02:33:55.438Z,0.00
2023-01-23T02:34:55.537Z,0.00
2023-01-23T02:35:55.407Z,0.00
2023-01-23T02:36:55.383Z,0.00
2023-01-23T02:37:55.374Z,0.00
2023-01-23T02:38:55.361Z,0.00
2023-01-23T02:39:55.351Z,0.00
2023-01-23T02:40:55.332Z,0.00
2023-01-23T02:41:55.325Z,0.00
2023-01-23T02:42:55.310Z,0.00
2023-01-23T02:43:55.301Z,0.00
2023-01-23T02:44:55.282Z,0.00
2023-01-23T02:45:55.344Z,0.00
2023-01-23T02:46:55.269Z,0.00
2023-01-23T02:47:55.250Z,0.00
2023-01-23T02:48:55.240Z,0.00
2023-01-23T02:49:55.240Z,0.00
2023-01-23T02:50:55.340Z,0.00
2023-01-23T02:51:55.233Z,0.00
2023-01-23T02:52:55.189Z,0.00
2023-01-23T02:53:55.184Z,0.00
2023-01-23T02:54:55.163Z,0.00
2023-01-23T02:55:55.151Z,0.00
2023-01-23T02:56:55.138Z,0.00
2023-01-23T02:57:55.132Z,0.00
2023-01-23T02:58:55.114Z,0.00
2023-01-23T02:59:55.115Z,0.00
2023-01-23T03:00:55.110Z,0.00
2023-01-23T03:01:55.122Z,0.00
2023-01-23T03:02:55.064Z,0.00
2023-01-23T03:03:55.053Z,0.00
2023-01-23T03:04:55.043Z,0.00
2023-01-23T03:05:55.032Z,0.00
2023-01-23T03:06:55.135Z,0.00
2023-01-23T03:07:55.011Z,0.00
2023-01-23T03:08:54.993Z,0.00
2023-01-23T03:09:54.981Z,0.00
2023-01-23T03:10:54.971Z,0.00
2023-01-23T03:11:54.959Z,0.00
2023-01-23T03:12:54.944Z,0.00
2023-01-23T03:13:54.934Z,0.00
2023-01-23T03:14:54.932Z,0.00
2023-01-23T03:15:54.912Z,0.00
2023-01-23T03:16:54.897Z,0.00
2023-01-23T03:17:54.886Z,0.00
2023-01-23T03:18:55.247Z,0.00
2023-01-23T03:19:54.861Z,0.00
2023-01-23T03:20:54.845Z,0.00
2023-01-23T03:21:54.870Z,0.00
2023-01-23T03:22:54.937Z,0.00
2023-01-23T03:23:54.809Z,0.00
2023-01-23T03:24:54.797Z,0.00
2023-01-23T03:25:54.788Z,0.00
2023-01-23T03:26:54.773Z,0.00
2023-01-23T03:27:54.761Z,0.00
2023-01-23T03:28:54.747Z,0.00
2023-01-23T03:29:54.738Z,0.00
2023-01-23T03:30:54.808Z,0.00
2023-01-23T03:31:54.767Z,0.00
2023-01-23T03:32:54.701Z,0.00
2023-01-23T03:33:54.686Z,0.00
2023-01-23T03:34:54.675Z,0.00
2023-01-23T03:35:54.664Z,0.00
2023-01-23T03:36:54.649Z,0.00
2023-01-23T03:37:54.637Z,0.00
2023-01-23T03:38:54.744Z,0.00
2023-01-23T03:39:54.611Z,0.00
2023-01-23T03:40:54.603Z,0.00
2023-01-23T03:41:54.587Z,0.00
2023-01-23T03:42:54.580Z,0.00
2023-01-23T03:43:54.565Z,0.00
2023-01-23T03:44:54.551Z,0.00
2023-01-23T03:45:54.587Z,0.00
2023-01-23T03:46:54.541Z,0.00
2023-01-23T03:47:54.521Z,0.00
2023-01-23T03:48:54.502Z,0.00
2023-01-23T03:49:54.491Z,0.00
2023-01-23T03:50:54.531Z,0.00
2023-01-23T03:51:54.466Z,0.00
2023-01-23T03:52:54.453Z,0.00
2023-01-23T03:53:54.441Z,0.00
2023-01-23T03:54:54.543Z,0.00
2023-01-23T03:55:54.416Z,0.00
2023-01-23T03:56:54.409Z,0.00
2023-01-23T03:57:54.393Z,0.00
2023-01-23T03:58:54.378Z,0.00
2023-01-23T03:59:54.366Z,0.00
2023-01-23T04:00:54.381Z,0.00
2023-01-23T04:01:54.346Z,0.00
2023-01-23T04:02:54.367Z,0.00
2023-01-23T04:03:54.316Z,0.00
2023-01-23T04:04:54.301Z,0.00
2023-01-23T04:05:54.297Z,0.00
2023-01-23T04:06:54.287Z,0.00
2023-01-23T04:07:54.269Z,0.00
2023-01-23T04:08:54.256Z,0.00
2023-01-23T04:09:54.242Z,0.00
2023-01-23T04:10:54.353Z,0.00
2023-01-23T04:11:54.221Z,0.00
2023-01-23T04:12:54.205Z,0.00
2023-01-23T04:13:54.199Z,0.00
2023-01-23T04:14:54.179Z,0.00
2023-01-23T04:15:54.169Z,0.00
2023-01-23T04:16:54.270Z,0.00
2023-01-23T04:17:54.151Z,0.00
2023-01-23T04:18:54.136Z,0.00
2023-01-23T04:19:54.123Z,0.00
2023-01-23T04:20:54.136Z,0.00
2023-01-23T04:21:54.093Z,0.00
2023-01-23T04:22:54.081Z,0.00
2023-01-23T04:23:54.070Z,0.00
2023-01-23T04:24:54.058Z,0.00
2023-01-23T04:25:54.047Z,0.00
2023-01-23T04:26:54.151Z,0.00
2023-01-23T04:27:54.031Z,0.00
2023-01-23T04:28:54.012Z,0.00
2023-01-23T04:29:53.997Z,0.00
2023-01-23T04:30:54.062Z,0.00
2023-01-23T04:31:54.066Z,0.00
2023-01-23T04:32:53.958Z,0.00
2023-01-23T04:33:53.946Z,0.00
2023-01-23T04:34:53.932Z,0.00
2023-01-23T04:35:53.928Z,0.00
2023-01-23T04:36:53.911Z,0.00
2023-01-23T04:37:53.896Z,0.00
2023-01-23T04:38:53.881Z,0.00
2023-01-23T04:39:53.871Z,0.00
2023-01-23T04:40:53.857Z,0.00
2023-01-23T04:41:53.843Z,0.00
2023-01-23T04:42:53.954Z,0.00
2023-01-23T04:43:53.822Z,0.00
2023-01-23T04:44:53.818Z,0.00
2023-01-23T04:45:53.894Z,0.00
2023-01-23T04:46:53.779Z,0.00
2023-01-23T04:47:53.775Z,0.00
2023-01-23T04:48:53.752Z,0.00
2023-01-23T04:49:53.740Z,0.00
2023-01-23T04:50:53.782Z,0.00
2023-01-23T04:51:53.714Z,0.00
2023-01-23T04:52:53.704Z,0.00
2023-01-23T04:53:53.688Z,0.00
2023-01-23T04:54:53.678Z,0.00
2023-01-23T04:55:53.663Z,0.00
2023-01-23T04:56:53.666Z,0.00
2023-01-23T04:57:53.642Z,0.00
2023-01-23T04:58:53.762Z,0.00
2023-01-23T04:59:53.618Z,0.00
2023-01-23T05:00:53.606Z,0.00
2023-01-23T05:01:53.592Z,0.00
2023-01-23T05:02:53.578Z,0.00
2023-01-23T05:03:53.572Z,0.00
2023-01-23T05:04:53.561Z,0.00
2023-01-23T05:05:53.547Z,0.00
2023-01-23T05:06:53.529Z,0.00
2023-01-23T05:07:53.519Z,0.00
2023-01-23T05:08:53.514Z,0.00
2023-01-23T05:09:53.498Z,0.00
2023-01-23T05:10:53.480Z,0.00
2023-01-23T05:11:53.471Z,0.00
2023-01-23T05:12:53.460Z,0.00
2023-01-23T05:13:53.444Z,0.00
2023-01-23T05:14:53.556Z,0.00
2023-01-23T05:15:53.474Z,0.00
2023-01-23T05:16:53.417Z,0.00
2023-01-23T05:17:53.405Z,0.00
2023-01-23T05:18:53.384Z,0.00
2023-01-23T05:19:53.384Z,0.00
2023-01-23T05:20:53.359Z,0.00
2023-01-23T05:21:53.350Z,0.00
2023-01-23T05:22:53.353Z,0.00
2023-01-23T05:23:53.324Z,0.00
2023-01-23T05:24:53.323Z,0.00
2023-01-23T05:25:53.300Z,0.00
2023-01-23T05:26:53.292Z,0.00
2023-01-23T05:27:53.277Z,0.00
2023-01-23T05:28:53.263Z,0.00
2023-01-23T05:29:53.255Z,0.00
2023-01-23T05:30:53.551Z,0.00
2023-01-23T05:31:53.232Z,0.00
2023-01-23T05:32:53.215Z,0.00
2023-01-23T05:33:53.204Z,0.00
2023-01-23T05:34:53.193Z,0.00
2023-01-23T05:35:53.178Z,0.00
2023-01-23T05:36:53.168Z,0.00
2023-01-23T05:37:53.155Z,0.00
2023-01-23T05:38:53.143Z,0.00
2023-01-23T05:39:53.130Z,0.00
2023-01-23T05:40:53.118Z,0.00
2023-01-23T05:41:53.108Z,0.00
2023-01-23T05:42:53.098Z,0.00
2023-01-23T05:43:53.092Z,0.00
2023-01-23T05:44:53.071Z,0.00
2023-01-23T05:45:53.103Z,0.00
2023-01-23T05:46:53.171Z,0.00
2023-01-23T05:47:53.036Z,0.00
2023-01-23T05:48:53.020Z,0.00
2023-01-23T05:49:53.012Z,0.00
2023-01-23T05:50:53.020Z,0.00
2023-01-23T05:51:52.990Z,0.00
2023-01-23T05:52:52.973Z,0.00
2023-01-23T05:53:52.968Z,0.00
2023-01-23T05:54:52.950Z,0.00
2023-01-23T05:55:52.943Z,0.00
2023-01-23T05:56:52.924Z,0.00
2023-01-23T05:57:52.924Z,0.00
2023-01-23T05:58:52.902Z,0.00
2023-01-23T05:59:52.888Z,0.00
2023-01-23T06:00:52.875Z,0.00
2023-01-23T06:01:52.861Z,0.00
2023-01-23T06:02:53.093Z,0.00
2023-01-23T06:03:52.922Z,0.00
2023-01-23T06:04:55.684Z,0.00
2023-01-23T06:05:52.808Z,0.00
2023-01-23T06:06:52.799Z,0.00
2023-01-23T06:07:52.788Z,0.00
2023-01-23T06:09:52.765Z,0.00
2023-01-23T06:10:52.769Z,0.00
2023-01-23T06:11:52.737Z,0.00
2023-01-23T06:12:52.732Z,0.00
2023-01-23T06:13:52.741Z,0.00
2023-01-23T06:14:52.705Z,0.00
2023-01-23T06:15:52.791Z,0.00
2023-01-23T06:16:52.683Z,0.00
2023-01-23T06:17:52.766Z,0.00
2023-01-23T06:18:52.776Z,0.00
2023-01-23T06:19:52.646Z,0.00
2023-01-23T06:20:52.639Z,0.00
2023-01-23T06:21:52.612Z,0.00
2023-01-23T06:22:52.600Z,0.00
2023-01-23T06:23:52.588Z,0.00
2023-01-23T06:24:52.601Z,0.00
2023-01-23T06:25:52.563Z,0.00
2023-01-23T06:26:52.550Z,0.00
2023-01-23T06:27:54.884Z,0.00
2023-01-23T06:28:52.537Z,0.00
2023-01-23T06:29:52.533Z,0.00
2023-01-23T06:30:52.583Z,0.00
2023-01-23T06:31:52.550Z,0.00
2023-01-23T06:32:52.482Z,0.00
2023-01-23T06:33:52.482Z,0.00
2023-01-23T06:34:52.570Z,0.00
2023-01-23T06:35:52.438Z,0.00
2023-01-23T06:36:52.424Z,0.00
2023-01-23T06:37:52.409Z,0.00
2023-01-23T06:38:52.400Z,0.00
2023-01-23T06:39:52.383Z,0.00
2023-01-23T06:40:52.374Z,4.00
2023-01-23T06:42:52.349Z,4.00
2023-01-23T06:43:52.336Z,0.00
2023-01-23T06:44:52.323Z,4.00
2023-01-23T06:45:52.312Z,4.00
2023-01-23T06:46:52.301Z,4.00
2023-01-23T06:47:52.287Z,4.00
2023-01-23T06:48:52.275Z,8.00
2023-01-23T06:49:52.262Z,8.00
2023-01-23T06:50:52.404Z,12.00
2023-01-23T06:51:52.235Z,12.00
2023-01-23T06:52:52.225Z,12.00
2023-01-23T06:53:52.217Z,16.00
2023-01-23T06:54:52.201Z,16.00
2023-01-23T06:55:52.191Z,20.00
2023-01-23T06:56:52.185Z,24.00
2023-01-23T06:57:52.167Z,32.00
2023-01-23T06:58:52.158Z,32.00
2023-01-23T06:59:52.138Z,44.00
2023-01-23T07:00:52.125Z,52.00
2023-01-23T07:01:52.143Z,60.00
2023-01-23T07:02:52.166Z,72.00
2023-01-23T07:03:52.092Z,84.00
2023-01-23T07:04:52.100Z,100.00
2023-01-23T07:05:52.068Z,116.00
2023-01-23T07:06:52.177Z,132.00
2023-01-23T07:07:52.061Z,148.00
2023-01-23T07:08:52.037Z,164.00
2023-01-23T07:09:52.019Z,180.00
2023-01-23T07:10:52.010Z,196.00
2023-01-23T07:11:51.993Z,208.00
2023-01-23T07:12:51.980Z,224.00
2023-01-23T07:13:51.968Z,244.00
2023-01-23T07:14:51.959Z,264.00
2023-01-23T07:15:51.966Z,284.00
2023-01-23T07:16:51.928Z,304.00
2023-01-23T07:17:51.914Z,332.00
2023-01-23T07:18:51.905Z,360.00
2023-01-23T07:19:51.890Z,396.00
2023-01-23T07:20:51.880Z,440.00
2023-01-23T07:21:51.866Z,500.00
2023-01-23T07:22:51.974Z,560.00
2023-01-23T07:23:51.848Z,616.00
2023-01-23T07:24:51.829Z,664.00
2023-01-23T07:25:51.816Z,716.00
2023-01-23T07:26:51.806Z,780.00
2023-01-23T07:27:51.790Z,844.00
2023-01-23T07:28:51.777Z,896.00
2023-01-23T07:29:51.772Z,948.00
2023-01-23T07:30:51.842Z,1008.00
2023-01-23T07:31:51.789Z,1072.00
2023-01-23T07:32:51.727Z,1152.00
2023-01-23T07:33:51.719Z,1256.00
2023-01-23T07:34:51.703Z,1400.00
2023-01-23T07:35:51.688Z,1512.00
2023-01-23T07:36:51.676Z,1580.00
2023-01-23T07:37:51.664Z,1664.00
2023-01-23T07:38:51.775Z,1836.00
2023-01-23T07:39:51.641Z,1996.00
2023-01-23T07:40:51.628Z,2140.00
2023-01-23T07:41:51.614Z,2236.00
2023-01-23T07:42:51.616Z,2184.00
2023-01-23T07:43:51.599Z,2216.00
2023-01-23T07:44:51.581Z,2320.00
2023-01-23T07:45:51.567Z,2416.00
2023-01-23T07:46:51.680Z,2572.00
2023-01-23T07:47:51.543Z,2536.00
2023-01-23T07:48:51.532Z,2632.00
2023-01-23T07:49:51.515Z,2896.00
2023-01-23T07:50:51.537Z,3152.00
2023-01-23T07:51:51.493Z,3372.00
2023-01-23T07:52:51.481Z,3532.00
2023-01-23T07:53:51.487Z,3832.00
2023-01-23T07:54:51.582Z,4072.00
2023-01-23T07:55:51.444Z,4156.00
2023-01-23T07:56:51.437Z,4156.00
2023-01-23T07:57:51.419Z,4064.00
2023-01-23T07:58:51.420Z,4108.00
2023-01-23T07:59:51.402Z,4240.00
2023-01-23T08:00:51.495Z,4308.00
2023-01-23T08:01:51.368Z,4452.00
2023-01-23T08:02:51.366Z,4724.00
2023-01-23T08:03:51.405Z,5140.00
2023-01-23T08:04:51.332Z,5376.00
2023-01-23T08:05:51.318Z,5612.00
2023-01-23T08:06:51.332Z,5728.00
2023-01-23T08:08:00.715Z,5316.00
2023-01-23T08:08:53.308Z,5096.00
2023-01-23T08:09:51.273Z,5364.00
2023-01-23T08:10:51.380Z,5808.00
2023-01-23T08:11:51.243Z,5468.00
2023-01-23T08:12:51.233Z,12832.00
2023-01-23T08:13:51.242Z,5108.00
2023-01-23T08:14:51.213Z,5244.00
2023-01-23T08:15:51.194Z,5888.00
2023-01-23T08:16:51.196Z,6576.00
2023-01-23T08:17:51.170Z,6824.00
2023-01-23T08:18:51.155Z,6716.00
2023-01-23T08:19:51.146Z,6276.00
2023-01-23T08:20:51.145Z,6388.00
2023-01-23T08:21:51.120Z,6476.00
2023-01-23T08:22:51.100Z,5616.00
2023-01-23T08:23:51.091Z,6012.00
2023-01-23T08:24:51.079Z,5892.00
2023-01-23T08:25:51.061Z,6292.00
2023-01-23T08:26:51.166Z,6284.00
2023-01-23T08:27:51.045Z,5992.00
2023-01-23T08:28:51.022Z,5816.00
2023-01-23T08:29:51.013Z,5220.00
2023-01-23T08:30:51.034Z,5104.00
2023-01-23T08:31:51.021Z,4772.00
2023-01-23T08:32:50.977Z,4428.00
2023-01-23T08:33:50.959Z,4304.00
2023-01-23T08:34:50.947Z,4408.00
2023-01-23T08:35:50.934Z,4440.00
2023-01-23T08:36:50.924Z,4564.00
2023-01-23T08:37:50.917Z,4696.00
2023-01-23T08:38:50.899Z,4668.00
2023-01-23T08:39:50.883Z,4508.00
2023-01-23T08:40:50.875Z,4508.00
2023-01-23T08:41:50.857Z,4356.00
2023-01-23T08:42:50.972Z,4084.00
2023-01-23T08:43:50.843Z,3840.00
2023-01-23T08:44:50.820Z,3680.00
2023-01-23T08:45:50.857Z,3572.00
2023-01-23T08:46:50.800Z,3600.00
2023-01-23T08:47:50.789Z,3544.00
2023-01-23T08:48:50.767Z,3432.00
2023-01-23T08:49:50.756Z,3464.00
2023-01-23T08:50:50.777Z,3520.00
2023-01-23T08:51:50.728Z,3524.00
2023-01-23T08:52:50.716Z,3564.00
2023-01-23T08:53:50.701Z,3608.00
2023-01-23T08:54:50.697Z,3688.00
2023-01-23T08:55:50.676Z,3720.00
2023-01-23T08:56:50.663Z,3716.00
2023-01-23T08:57:50.648Z,3700.00
2023-01-23T08:58:50.766Z,3716.00
2023-01-23T08:59:50.628Z,3744.00
2023-01-23T09:00:50.687Z,3744.00
2023-01-23T09:01:50.694Z,3756.00
2023-01-23T09:02:50.587Z,3792.00
2023-01-23T09:03:50.602Z,3800.00
2023-01-23T09:04:50.567Z,3772.00
2023-01-23T09:05:50.546Z,3820.00
2023-01-23T09:06:50.537Z,3960.00
2023-01-23T09:07:50.528Z,4052.00
2023-01-23T09:08:50.513Z,4148.00
2023-01-23T09:09:50.500Z,4116.00
2023-01-23T09:10:50.484Z,4036.00
2023-01-23T09:11:50.476Z,3984.00
2023-01-23T09:12:50.458Z,3968.00
2023-01-23T09:13:52.305Z,4020.00
2023-01-23T09:14:50.560Z,4104.00
2023-01-23T09:15:50.423Z,4136.00
2023-01-23T09:16:50.457Z,4168.00
2023-01-23T09:17:50.394Z,4228.00
2023-01-23T09:18:50.391Z,4364.00
2023-01-23T09:19:50.370Z,4544.00
2023-01-23T09:20:50.357Z,4704.00
2023-01-23T09:21:50.343Z,4800.00
2023-01-23T09:22:50.415Z,4784.00
2023-01-23T09:23:50.317Z,4688.00
2023-01-23T09:24:50.305Z,4680.00
2023-01-23T09:25:50.292Z,4728.00
2023-01-23T09:26:50.282Z,4836.00
2023-01-23T09:27:50.265Z,5072.00
2023-01-23T09:28:50.254Z,5400.00
2023-01-23T09:29:50.242Z,5588.00
2023-01-23T09:30:50.433Z,5524.00
2023-01-23T09:31:50.260Z,5248.00
2023-01-23T09:32:50.203Z,5032.00
2023-01-23T09:33:50.192Z,5028.00
2023-01-23T09:34:50.184Z,5236.00
2023-01-23T09:35:50.166Z,5496.00
2023-01-23T09:36:50.164Z,5564.00
2023-01-23T09:37:50.136Z,5528.00
2023-01-23T09:38:50.127Z,5512.00
2023-01-23T09:39:50.113Z,5564.00
2023-01-23T09:40:50.100Z,5732.00
2023-01-23T09:41:50.088Z,5772.00
2023-01-23T09:42:50.076Z,5680.00
2023-01-23T09:43:50.063Z,5668.00
2023-01-23T09:44:50.055Z,5788.00
2023-01-23T09:45:50.132Z,5848.00
2023-01-23T09:46:50.144Z,5748.00
2023-01-23T09:47:51.895Z,5572.00
2023-01-23T09:48:49.997Z,5444.00
2023-01-23T09:49:49.985Z,5460.00
2023-01-23T09:50:49.990Z,5464.00
2023-01-23T09:51:49.971Z,5360.00
2023-01-23T09:52:49.946Z,5220.00
2023-01-23T09:53:49.945Z,5100.00
2023-01-23T09:54:49.944Z,5004.00
2023-01-23T09:55:49.921Z,4968.00
2023-01-23T09:56:49.895Z,5012.00
2023-01-23T09:57:49.888Z,5060.00
2023-01-23T09:58:49.868Z,5148.00
2023-01-23T09:59:59.365Z,5300.00
2023-01-23T10:00:49.868Z,5484.00
2023-01-23T10:01:49.840Z,5604.00
2023-01-23T10:02:50.019Z,5596.00
2023-01-23T10:03:49.808Z,5616.00
2023-01-23T10:04:49.794Z,5748.00
2023-01-23T10:05:49.783Z,5884.00
2023-01-23T10:06:49.769Z,5984.00
2023-01-23T10:07:49.755Z,5908.00
2023-01-23T10:08:49.742Z,5912.00
2023-01-23T10:09:49.740Z,6096.00
2023-01-23T10:10:49.722Z,6148.00
2023-01-23T10:11:49.706Z,6184.00
2023-01-23T10:12:49.688Z,6184.00
2023-01-23T10:13:49.681Z,6088.00
2023-01-23T10:14:49.684Z,6100.00
2023-01-23T10:15:49.653Z,6012.00
2023-01-23T10:16:51.149Z,5908.00
2023-01-23T10:17:49.628Z,5940.00
2023-01-23T10:18:49.727Z,6020.00
2023-01-23T10:19:49.606Z,6044.00
2023-01-23T10:20:49.588Z,6032.00
2023-01-23T10:21:49.573Z,6012.00
2023-01-23T10:22:49.561Z,6028.00
2023-01-23T10:24:49.537Z,6092.00
2023-01-23T10:25:49.527Z,6244.00
2023-01-23T10:26:49.531Z,6456.00
2023-01-23T10:27:49.500Z,6560.00
2023-01-23T10:28:49.496Z,6708.00
2023-01-23T10:29:49.477Z,6748.00
2023-01-23T10:30:49.578Z,6696.00
2023-01-23T10:31:49.493Z,6652.00
2023-01-23T10:32:49.522Z,6628.00
2023-01-23T10:33:49.462Z,6584.00
2023-01-23T10:34:49.532Z,6696.00
2023-01-23T10:35:49.397Z,6792.00
2023-01-23T10:36:54.730Z,6736.00
2023-01-23T10:37:49.381Z,6572.00
2023-01-23T10:38:49.359Z,6432.00
2023-01-23T10:39:49.360Z,6364.00
2023-01-23T10:40:49.349Z,6240.00
2023-01-23T10:41:54.290Z,6152.00
2023-01-23T10:42:51.310Z,6104.00
2023-01-23T10:43:49.330Z,6112.00
2023-01-23T10:44:49.291Z,6248.00
2023-01-23T10:45:49.354Z,6352.00
2023-01-23T10:46:49.261Z,6392.00
2023-01-23T10:47:54.667Z,6408.00
2023-01-23T10:48:51.242Z,6456.00
2023-01-23T10:49:49.239Z,6672.00
2023-01-23T10:50:49.372Z,6900.00
2023-01-23T10:51:49.198Z,7116.00
2023-01-23T10:52:49.187Z,7460.00
2023-01-23T10:53:49.170Z,7880.00
2023-01-23T10:54:49.154Z,8016.00
2023-01-23T10:55:49.143Z,7824.00
2023-01-23T10:56:49.132Z,7740.00
2023-01-23T10:57:49.344Z,7712.00
2023-01-23T10:58:49.103Z,7816.00
2023-01-23T10:59:49.094Z,7992.00
2023-01-23T11:00:49.100Z,8112.00
2023-01-23T11:01:57.368Z,8304.00
2023-01-23T11:02:49.132Z,8500.00
2023-01-23T11:03:49.044Z,8860.00
2023-01-23T11:04:49.034Z,9028.00
2023-01-23T11:05:52.804Z,9252.00
2023-01-23T11:06:49.120Z,9492.00
2023-01-23T11:07:48.995Z,9464.00
2023-01-23T11:08:48.978Z,9476.00
2023-01-23T11:09:48.982Z,9524.00
2023-01-23T11:10:48.950Z,9652.00
2023-01-23T11:11:48.939Z,9564.00
2023-01-23T11:12:48.931Z,9408.00
2023-01-23T11:13:48.915Z,9124.00
2023-01-23T11:14:48.900Z,9108.00
2023-01-23T11:15:48.969Z,9624.00
2023-01-23T11:16:48.872Z,10000.00
2023-01-23T11:17:48.864Z,9508.00
2023-01-23T11:18:48.847Z,9032.00
2023-01-23T11:19:48.837Z,9084.00
2023-01-23T11:20:48.823Z,9640.00
2023-01-23T11:21:48.818Z,10412.00
2023-01-23T11:22:48.926Z,10912.00
2023-01-23T11:23:48.790Z,10412.00
2023-01-23T11:24:48.774Z,10372.00
2023-01-23T11:26:48.747Z,11528.00
2023-01-23T11:27:48.739Z,11096.00
2023-01-23T11:28:48.718Z,10768.00
2023-01-23T11:29:48.717Z,10744.00
2023-01-23T11:30:48.866Z,11152.00
2023-01-23T11:31:48.856Z,10552.00
2023-01-23T11:32:48.669Z,9756.00
2023-01-23T11:33:48.659Z,9592.00
2023-01-23T11:34:48.643Z,10128.00
2023-01-23T11:35:48.632Z,10832.00
2023-01-23T11:36:48.660Z,10284.00
2023-01-23T11:37:48.604Z,9664.00
2023-01-23T11:38:52.864Z,9636.00
2023-01-23T11:39:48.579Z,9604.00
2023-01-23T11:40:48.568Z,10160.00
2023-01-23T11:41:48.553Z,11156.00
2023-01-23T11:42:48.538Z,11584.00
2023-01-23T11:43:48.527Z,11388.00
2023-01-23T11:44:48.512Z,11292.00
2023-01-23T11:45:48.657Z,11308.00
2023-01-23T11:46:48.485Z,12056.00
2023-01-23T11:47:48.485Z,12240.00
2023-01-23T11:48:48.461Z,11388.00
2023-01-23T11:49:50.157Z,10284.00
2023-01-23T11:50:56.194Z,9652.00
2023-01-23T11:51:50.425Z,9232.00
2023-01-23T11:52:48.414Z,9048.00
2023-01-23T11:53:48.441Z,8968.00
2023-01-23T11:55:48.372Z,8864.00
2023-01-23T11:56:48.358Z,8752.00
2023-01-23T11:57:48.355Z,8868.00
2023-01-23T11:58:50.370Z,9084.00
2023-01-23T11:59:48.323Z,9112.00
2023-01-23T12:00:48.309Z,8720.00
2023-01-23T12:01:58.433Z,8292.00
2023-01-23T12:02:50.290Z,8296.00
2023-01-23T12:03:48.312Z,8716.00
2023-01-23T12:04:48.258Z,9580.00
2023-01-23T12:05:48.255Z,10128.00
2023-01-23T12:06:48.232Z,9636.00
2023-01-23T12:07:48.223Z,9436.00
2023-01-23T12:08:48.203Z,9052.00
2023-01-23T12:09:48.195Z,8224.00
2023-01-23T12:10:48.294Z,7500.00
2023-01-23T12:11:48.167Z,7168.00
2023-01-23T12:12:48.152Z,7004.00
2023-01-23T12:13:48.144Z,7016.00
2023-01-23T12:14:48.126Z,7200.00
2023-01-23T12:15:48.219Z,7216.00
2023-01-23T12:16:48.111Z,7204.00
2023-01-23T12:17:48.087Z,7264.00
2023-01-23T12:18:48.074Z,7220.00
2023-01-23T12:19:48.064Z,7020.00
2023-01-23T12:20:48.488Z,6692.00
2023-01-23T12:21:48.049Z,6520.00
2023-01-23T12:22:48.025Z,6560.00
2023-01-23T12:23:48.013Z,6536.00
2023-01-23T12:24:47.997Z,6500.00
2023-01-23T12:25:47.984Z,6400.00
2023-01-23T12:26:48.100Z,6316.00
2023-01-23T12:27:47.960Z,6364.00
2023-01-23T12:28:47.945Z,6492.00
2023-01-23T12:29:47.938Z,6596.00
2023-01-23T12:30:47.919Z,6488.00
2023-01-23T12:31:47.989Z,6452.00
2023-01-23T12:33:47.882Z,6816.00
2023-01-23T12:34:47.865Z,7572.00
2023-01-23T12:35:47.856Z,8660.00
2023-01-23T12:37:06.241Z,9648.00
2023-01-23T12:37:49.835Z,10124.00
2023-01-23T12:38:47.815Z,9860.00
2023-01-23T12:39:47.811Z,10296.00
2023-01-23T12:40:47.793Z,10636.00
2023-01-23T12:41:47.779Z,12020.00
2023-01-23T12:42:47.886Z,13728.00
2023-01-23T12:43:47.753Z,15032.00
2023-01-23T12:44:47.742Z,30048.00
2023-01-23T12:45:47.728Z,59840.00
2023-01-23T12:46:47.767Z,11624.00
2023-01-23T12:47:47.742Z,9524.00
2023-01-23T12:48:47.689Z,9328.00
2023-01-23T12:49:47.678Z,9136.00
2023-01-23T12:50:48.032Z,9836.00